Time;durP1;ratioP1;P1;durP2;ratioP2;P2;SDS_P1;SDS_P2;PMS_P1;PMS_P2;Temp;Humidity;BMP_temperature;BMP_pressure;BME280_temperature;BME280_humidity;BME280_pressure;Samples;Min_cycle;Max_cycle;Signal;HPM_P1;HPM_P2
2022/03/13 00:02:11;;;;;;;19.55;15.00;;;2.70;99.90;;;;;;5025937;28;20289;-69
2022/03/13 00:04:38;;;;;;;17.45;14.95;;;2.70;99.90;;;;;;5025834;28;20295;-69
2022/03/13 00:07:09;;;;;;;17.20;14.40;;;2.70;99.90;;;;;;5027858;28;20644;-69
2022/03/13 00:09:38;;;;;;;15.30;13.55;;;2.60;99.90;;;;;;5026147;28;20231;-69
2022/03/13 00:12:07;;;;;;;16.83;14.30;;;2.50;99.90;;;;;;5025019;28;20632;-69
2022/03/13 00:14:35;;;;;;;19.20;15.65;;;2.50;99.90;;;;;;5025918;28;20608;-69
2022/03/13 00:17:02;;;;;;;16.40;14.60;;;2.50;99.90;;;;;;5025622;28;20232;-69
2022/03/13 00:19:30;;;;;;;19.23;15.07;;;2.50;99.90;;;;;;5024471;28;20206;-69
2022/03/13 00:21:57;;;;;;;16.33;14.63;;;2.50;99.90;;;;;;5022737;28;21066;-70
2022/03/13 00:24:24;;;;;;;17.33;15.38;;;2.50;99.90;;;;;;5025834;28;20223;-69
2022/03/13 00:26:53;;;;;;;18.23;14.57;;;2.50;99.90;;;;;;5020456;28;20223;-69
2022/03/13 00:29:20;;;;;;;19.13;15.82;;;2.50;99.90;;;;;;5033024;28;20215;-69
2022/03/13 00:31:48;;;;;;;20.80;15.45;;;2.40;99.90;;;;;;5022157;28;20302;-69
2022/03/13 00:34:15;;;;;;;17.80;14.70;;;2.40;99.90;;;;;;5027371;28;20219;-69
2022/03/13 00:36:42;;;;;;;17.80;15.70;;;2.40;99.90;;;;;;5025508;28;20227;-69
2022/03/13 00:39:10;;;;;;;18.60;16.20;;;2.40;99.90;;;;;;5024990;28;20238;-69
2022/03/13 00:41:37;;;;;;;19.52;17.40;;;2.40;99.90;;;;;;5027635;28;20322;-68
2022/03/13 00:44:06;;;;;;;17.05;15.25;;;2.40;99.90;;;;;;5027130;28;20230;-68
2022/03/13 00:46:33;;;;;;;18.63;15.52;;;2.30;99.90;;;;;;5026282;28;20218;-68
2022/03/13 00:49:00;;;;;;;20.92;16.50;;;2.20;99.90;;;;;;5027916;28;20230;-68
2022/03/13 00:51:27;;;;;;;18.20;15.57;;;2.20;99.90;;;;;;5030424;28;20195;-68
2022/03/13 00:53:54;;;;;;;17.38;15.52;;;2.20;99.90;;;;;;5027688;28;20317;-68
2022/03/13 00:56:21;;;;;;;18.67;15.73;;;2.20;99.90;;;;;;5023818;28;20720;-69
2022/03/13 00:58:48;;;;;;;18.30;16.33;;;2.20;99.90;;;;;;5029930;28;20226;-68
2022/03/13 01:01:18;;;;;;;17.08;15.07;;;2.20;99.90;;;;;;5029477;28;20250;-69
2022/03/13 01:03:50;;;;;;;21.35;18.10;;;2.20;99.90;;;;;;5027179;28;20791;-68
2022/03/13 01:06:18;;;;;;;21.55;17.98;;;2.20;99.90;;;;;;5049244;23;20242;-76
2022/03/13 01:08:46;;;;;;;23.48;17.52;;;2.20;99.90;;;;;;5040986;28;20281;-76
2022/03/13 01:11:14;;;;;;;21.92;17.55;;;2.10;99.90;;;;;;5044040;28;20573;-76
2022/03/13 01:13:42;;;;;;;19.75;16.08;;;2.10;99.90;;;;;;5044814;28;20219;-76
2022/03/13 01:16:15;;;;;;;20.25;16.30;;;2.00;99.90;;;;;;5043856;28;20222;-76
2022/03/13 01:18:46;;;;;;;18.23;15.75;;;1.90;99.90;;;;;;5049361;28;20211;-77
2022/03/13 01:21:15;;;;;;;20.38;17.00;;;1.80;99.90;;;;;;5045581;28;20673;-76
2022/03/13 01:23:55;;;;;;;18.50;16.52;;;1.70;99.90;;;;;;5047355;28;20225;-76
2022/03/13 01:26:37;;;;;;;22.73;17.85;;;1.60;99.90;;;;;;5053060;28;20321;-77
2022/03/13 01:29:07;;;;;;;20.27;16.90;;;1.60;99.90;;;;;;5058742;28;20254;-76
2022/03/13 01:31:36;;;;;;;21.27;16.73;;;1.60;99.90;;;;;;5047631;28;20194;-76
2022/03/13 01:34:06;;;;;;;20.17;16.98;;;1.50;99.90;;;;;;5043527;28;20223;-76
2022/03/13 01:36:33;;;;;;;21.83;18.48;;;1.50;99.90;;;;;;5051626;28;20210;-75
2022/03/13 01:39:01;;;;;;;21.05;17.83;;;1.40;99.90;;;;;;5050139;28;20227;-76
2022/03/13 01:41:29;;;;;;;23.98;17.63;;;1.40;99.90;;;;;;5051863;28;20199;-76
2022/03/13 01:43:58;;;;;;;20.65;17.27;;;1.40;99.90;;;;;;5054652;28;20221;-78
2022/03/13 01:46:25;;;;;;;17.63;15.75;;;1.40;99.90;;;;;;5045073;28;20230;-76
2022/03/13 01:48:54;;;;;;;22.35;18.48;;;1.40;99.90;;;;;;5048625;28;20249;-76
2022/03/13 01:51:23;;;;;;;21.23;18.65;;;1.30;99.90;;;;;;5044922;28;20630;-76
2022/03/13 01:53:54;;;;;;;21.48;17.27;;;1.20;99.90;;;;;;5044800;28;20219;-76
2022/03/13 01:56:22;;;;;;;22.92;17.55;;;1.10;99.90;;;;;;5052641;28;20226;-76
2022/03/13 01:58:51;;;;;;;23.70;19.13;;;1.10;99.90;;;;;;5046101;28;20211;-76
2022/03/13 02:01:19;;;;;;;22.83;18.95;;;1.00;99.90;;;;;;5046109;28;20744;-76
2022/03/13 02:03:48;;;;;;;23.10;20.15;;;1.00;99.90;;;;;;5048410;28;20230;-76
2022/03/13 02:06:15;;;;;;;22.88;18.70;;;1.10;99.90;;;;;;5044690;28;20223;-76
2022/03/13 02:08:45;;;;;;;24.48;19.88;;;1.10;99.90;;;;;;5046376;28;20272;-77
2022/03/13 02:11:17;;;;;;;23.40;18.52;;;1.10;99.90;;;;;;5044131;28;20195;-77
2022/03/13 02:13:44;;;;;;;26.73;21.20;;;1.10;99.90;;;;;;5045838;28;20242;-76
2022/03/13 02:16:12;;;;;;;26.33;20.75;;;1.20;99.90;;;;;;5045969;28;20219;-76
2022/03/13 02:18:39;;;;;;;29.55;21.25;;;1.20;99.90;;;;;;5047208;28;20273;-76
2022/03/13 02:21:07;;;;;;;26.83;22.00;;;1.20;99.90;;;;;;5059486;28;20199;-78
2022/03/13 02:23:36;;;;;;;23.58;20.25;;;1.10;99.90;;;;;;5056073;28;20223;-75
2022/03/13 02:26:05;;;;;;;27.50;21.75;;;1.20;99.90;;;;;;5045853;28;20234;-76
2022/03/13 02:28:34;;;;;;;27.75;20.90;;;1.20;99.90;;;;;;5045032;28;20214;-76
2022/03/13 02:31:04;;;;;;;22.25;19.80;;;1.10;99.90;;;;;;5040380;28;20636;-76
2022/03/13 02:33:32;;;;;;;25.83;21.40;;;1.10;99.90;;;;;;5047229;28;20782;-77
2022/03/13 02:36:00;;;;;;;23.67;20.17;;;1.00;99.90;;;;;;5042608;28;20211;-78
2022/03/13 02:38:29;;;;;;;24.33;19.50;;;1.00;99.90;;;;;;5046805;28;20811;-76
2022/03/13 02:40:59;;;;;;;23.70;18.48;;;0.90;99.90;;;;;;5046469;28;20259;-76
2022/03/13 02:43:27;;;;;;;22.35;18.65;;;1.00;99.90;;;;;;5044702;28;20230;-77
2022/03/13 02:45:54;;;;;;;23.95;18.80;;;1.00;99.90;;;;;;5049764;28;20242;-76
2022/03/13 02:48:21;;;;;;;24.33;19.67;;;1.00;99.90;;;;;;5050576;28;20222;-76
2022/03/13 02:50:49;;;;;;;25.20;20.05;;;0.90;99.90;;;;;;5054325;28;20723;-76
2022/03/13 02:53:17;;;;;;;21.40;17.80;;;1.00;99.90;;;;;;5053750;28;20226;-77
2022/03/13 02:55:45;;;;;;;19.17;17.08;;;1.00;99.90;;;;;;5052209;28;20220;-75
2022/03/13 02:58:13;;;;;;;19.23;16.40;;;1.10;99.90;;;;;;5049627;28;20317;-76
2022/03/13 03:00:44;;;;;;;23.00;18.52;;;1.10;99.90;;;;;;5049319;28;20203;-76
2022/03/13 03:03:13;;;;;;;20.40;18.13;;;1.10;99.90;;;;;;5047919;28;20327;-76
2022/03/13 03:05:40;;;;;;;21.90;18.05;;;1.00;99.90;;;;;;5053022;28;20234;-76
2022/03/13 03:08:08;;;;;;;26.52;21.23;;;1.00;99.90;;;;;;5050697;28;20303;-77
2022/03/13 03:10:36;;;;;;;23.33;18.63;;;0.90;99.90;;;;;;5042713;28;20261;-76
2022/03/13 03:13:04;;;;;;;20.00;16.40;;;0.90;99.90;;;;;;5050217;28;20233;-76
2022/03/13 03:15:32;;;;;;;21.38;17.20;;;0.90;99.90;;;;;;5058676;28;20233;-78
2022/03/13 03:17:59;;;;;;;20.50;16.85;;;1.00;99.90;;;;;;5056317;28;20218;-76
2022/03/13 03:20:26;;;;;;;21.17;16.90;;;1.00;99.90;;;;;;5048150;28;20751;-78
2022/03/13 03:22:54;;;;;;;20.48;16.80;;;1.10;99.90;;;;;;5048253;28;20218;-76
2022/03/13 03:25:23;;;;;;;20.77;16.85;;;1.10;99.90;;;;;;5052668;28;20218;-76
2022/03/13 03:27:52;;;;;;;19.70;16.92;;;1.10;99.90;;;;;;5047946;28;20222;-75
2022/03/13 03:30:22;;;;;;;19.90;16.67;;;1.10;99.90;;;;;;5047813;28;20610;-76
2022/03/13 03:32:52;;;;;;;17.67;15.77;;;1.20;99.90;;;;;;5046778;28;20237;-77
2022/03/13 03:35:20;;;;;;;17.50;15.27;;;1.20;99.90;;;;;;5046231;28;20230;-76
2022/03/13 03:37:47;;;;;;;19.48;15.43;;;1.20;99.90;;;;;;5043954;28;20312;-77
2022/03/13 03:40:14;;;;;;;20.48;16.20;;;1.20;99.90;;;;;;5053207;28;20195;-76
2022/03/13 03:42:42;;;;;;;17.88;15.98;;;1.10;99.90;;;;;;5048684;28;20689;-77
2022/03/13 03:45:11;;;;;;;18.90;16.52;;;1.10;99.90;;;;;;5046392;28;20226;-77
2022/03/13 03:47:38;;;;;;;20.42;17.48;;;1.10;99.90;;;;;;5048089;28;20226;-76
2022/03/13 03:50:07;;;;;;;18.58;16.38;;;1.10;99.90;;;;;;5049504;28;20214;-74
2022/03/13 03:52:34;;;;;;;19.95;16.75;;;1.10;99.90;;;;;;5053360;28;20222;-76
2022/03/13 03:55:01;;;;;;;18.08;15.20;;;1.10;99.90;;;;;;5051326;28;20203;-76
2022/03/13 03:57:28;;;;;;;18.30;14.73;;;1.00;99.90;;;;;;5042447;28;20237;-76
2022/03/13 03:59:55;;;;;;;18.08;14.30;;;1.00;99.90;;;;;;5045198;28;20198;-76
2022/03/13 04:02:22;;;;;;;19.23;15.07;;;1.00;99.90;;;;;;5043616;28;20203;-76
2022/03/13 04:04:49;;;;;;;17.42;14.10;;;1.00;99.90;;;;;;5051462;28;20209;-74
2022/03/13 04:07:18;;;;;;;16.25;14.50;;;1.00;99.90;;;;;;5053103;28;20260;-76
2022/03/13 04:09:45;;;;;;;18.23;16.25;;;1.00;99.90;;;;;;5053014;28;20210;-77
2022/03/13 04:12:13;;;;;;;20.25;16.80;;;1.00;99.90;;;;;;5062667;28;20551;-77
2022/03/13 04:14:40;;;;;;;17.42;15.15;;;1.00;99.90;;;;;;5052730;28;20207;-76
2022/03/13 04:17:07;;;;;;;16.30;14.50;;;1.00;99.90;;;;;;5055488;28;20214;-76
2022/03/13 04:19:35;;;;;;;17.10;15.27;;;0.90;99.90;;;;;;5053656;28;20219;-77
2022/03/13 04:22:02;;;;;;;18.42;15.32;;;0.90;99.90;;;;;;5051684;28;20201;-77
2022/03/13 04:24:31;;;;;;;17.17;15.32;;;0.80;99.90;;;;;;5058875;28;20708;-76
2022/03/13 04:26:59;;;;;;;16.13;13.50;;;0.80;99.90;;;;;;5053347;28;20211;-76
2022/03/13 04:29:26;;;;;;;17.52;15.38;;;0.70;99.90;;;;;;5050894;28;20226;-76
2022/03/13 04:31:55;;;;;;;16.75;13.93;;;0.70;99.90;;;;;;5058717;28;20861;-76
2022/03/13 04:34:22;;;;;;;16.55;14.80;;;0.70;99.90;;;;;;5053337;28;20271;-77
2022/03/13 04:36:50;;;;;;;16.80;15.00;;;0.70;99.90;;;;;;5058443;28;20293;-76
2022/03/13 04:39:18;;;;;;;17.50;14.68;;;0.70;99.90;;;;;;5053111;28;20275;-77
2022/03/13 04:41:46;;;;;;;18.73;14.82;;;0.70;99.90;;;;;;5053492;28;20282;-77
2022/03/13 04:44:14;;;;;;;18.05;15.90;;;0.60;99.90;;;;;;5047814;28;20232;-76
2022/03/13 04:46:42;;;;;;;17.92;15.02;;;0.60;99.90;;;;;;5051618;28;20887;-76
2022/03/13 04:49:09;;;;;;;21.70;17.17;;;0.60;99.90;;;;;;5051062;28;20305;-76
2022/03/13 04:51:39;;;;;;;17.63;15.13;;;0.60;99.90;;;;;;5051817;28;20210;-77
2022/03/13 04:54:06;;;;;;;18.48;15.35;;;0.60;99.90;;;;;;5047519;28;20222;-76
2022/03/13 04:56:33;;;;;;;18.63;15.93;;;0.70;99.90;;;;;;5053781;28;20284;-76
2022/03/13 04:59:02;;;;;;;17.77;15.88;;;0.60;99.90;;;;;;5053735;28;20281;-76
2022/03/13 05:01:29;;;;;;;16.90;14.65;;;0.60;99.90;;;;;;5052223;28;20217;-76
2022/03/13 05:03:56;;;;;;;16.92;14.63;;;0.50;99.90;;;;;;5052909;28;20226;-76
2022/03/13 05:06:23;;;;;;;18.08;15.45;;;0.50;99.90;;;;;;5054314;28;20230;-76
2022/03/13 05:08:50;;;;;;;15.63;14.02;;;0.50;99.90;;;;;;5043068;28;20214;-77
2022/03/13 05:11:18;;;;;;;16.30;14.52;;;0.50;99.90;;;;;;5050439;28;20316;-76
2022/03/13 05:13:45;;;;;;;19.38;15.73;;;0.50;99.90;;;;;;5055303;28;20299;-77
2022/03/13 05:16:13;;;;;;;20.13;15.60;;;0.50;99.90;;;;;;5051843;28;20301;-76
2022/03/13 05:18:41;;;;;;;19.30;16.17;;;0.50;99.90;;;;;;5050962;28;20223;-76
2022/03/13 05:21:08;;;;;;;19.05;15.75;;;0.50;99.90;;;;;;5049543;28;20649;-77
2022/03/13 05:23:35;;;;;;;16.55;13.88;;;0.60;99.90;;;;;;5053324;28;20324;-76
2022/03/13 05:26:02;;;;;;;18.10;14.88;;;0.60;99.90;;;;;;5052375;28;20259;-76
2022/03/13 05:28:29;;;;;;;17.67;14.18;;;0.60;99.90;;;;;;5054058;28;20662;-76
2022/03/13 05:30:56;;;;;;;17.58;15.43;;;0.60;99.90;;;;;;5050121;28;22197;-77
2022/03/13 05:33:25;;;;;;;17.08;15.27;;;0.60;99.90;;;;;;5051469;28;20221;-76
2022/03/13 05:35:52;;;;;;;17.88;14.45;;;0.60;99.90;;;;;;5054183;28;20310;-76
2022/03/13 05:38:19;;;;;;;18.58;15.52;;;0.60;99.90;;;;;;5054549;28;20260;-76
2022/03/13 05:40:46;;;;;;;16.15;14.45;;;0.60;99.90;;;;;;5046269;28;20215;-76
2022/03/13 05:43:13;;;;;;;18.15;15.00;;;0.60;99.90;;;;;;5046418;28;20226;-76
2022/03/13 05:45:41;;;;;;;17.75;15.23;;;0.50;99.90;;;;;;5048577;28;20234;-76
2022/03/13 05:48:10;;;;;;;18.42;15.73;;;0.50;99.90;;;;;;5050337;28;20321;-75
2022/03/13 05:50:39;;;;;;;16.75;14.77;;;0.50;99.90;;;;;;5051818;28;20229;-76
2022/03/13 05:53:06;;;;;;;16.95;14.40;;;0.50;99.90;;;;;;5057490;28;20223;-76
2022/03/13 05:55:33;;;;;;;14.90;13.05;;;0.60;99.90;;;;;;5052304;28;20231;-76
2022/03/13 05:58:01;;;;;;;16.20;14.32;;;0.60;99.90;;;;;;5052466;28;20645;-76
2022/03/13 06:00:32;;;;;;;15.75;14.05;;;0.60;99.90;;;;;;5063185;28;20198;-76
2022/03/13 06:03:00;;;;;;;16.48;14.02;;;0.70;99.90;;;;;;5049170;28;20251;-76
2022/03/13 06:05:30;;;;;;;19.77;15.38;;;0.70;99.90;;;;;;5053667;28;20725;-76
2022/03/13 06:07:59;;;;;;;20.35;16.73;;;0.80;99.90;;;;;;5051383;28;20198;-76
2022/03/13 06:10:26;;;;;;;17.02;14.25;;;0.80;99.90;;;;;;5050633;28;20227;-76
2022/03/13 06:12:53;;;;;;;19.45;16.13;;;0.80;99.90;;;;;;5055957;28;20203;-75
2022/03/13 06:15:21;;;;;;;20.10;15.35;;;0.90;99.90;;;;;;5050621;28;20612;-77
2022/03/13 06:17:49;;;;;;;16.75;14.95;;;0.90;99.90;;;;;;5049980;28;20300;-77
2022/03/13 06:20:18;;;;;;;16.05;14.23;;;0.90;99.90;;;;;;5046027;28;20662;-76
2022/03/13 06:22:47;;;;;;;18.55;15.45;;;0.90;99.90;;;;;;5052924;28;20225;-76
2022/03/13 06:25:17;;;;;;;18.48;15.50;;;1.00;99.90;;;;;;5053407;28;20226;-76
2022/03/13 06:27:45;;;;;;;17.35;15.13;;;1.00;99.90;;;;;;5049239;28;20211;-76
2022/03/13 06:30:14;;;;;;;18.13;15.20;;;1.00;99.90;;;;;;5045978;28;20234;-77
2022/03/13 06:32:42;;;;;;;17.75;15.43;;;1.20;99.90;;;;;;5050828;28;20233;-75
2022/03/13 06:35:10;;;;;;;18.85;15.60;;;1.60;99.90;;;;;;5047275;28;20355;-76
2022/03/13 06:37:38;;;;;;;19.60;16.38;;;2.20;99.90;;;;;;5047633;28;20214;-76
2022/03/13 06:40:07;;;;;;;18.88;16.85;;;2.70;99.90;;;;;;5049415;28;20215;-76
2022/03/13 06:42:35;;;;;;;23.10;18.17;;;3.20;99.90;;;;;;5048828;28;20732;-75
2022/03/13 06:45:03;;;;;;;21.70;18.75;;;3.70;99.90;;;;;;5048589;28;20230;-77
2022/03/13 06:47:30;;;;;;;22.80;18.90;;;4.10;99.90;;;;;;5049905;28;20207;-76
2022/03/13 06:49:57;;;;;;;23.00;18.08;;;4.40;99.90;;;;;;5054379;28;20225;-76
2022/03/13 06:52:24;;;;;;;22.33;18.75;;;4.80;99.90;;;;;;5056343;28;20206;-77
2022/03/13 06:54:52;;;;;;;24.02;19.23;;;5.20;99.90;;;;;;5059671;28;20280;-77
2022/03/13 06:57:19;;;;;;;22.25;18.15;;;5.40;99.90;;;;;;5053628;28;20202;-77
2022/03/13 06:59:47;;;;;;;25.80;20.02;;;5.70;99.90;;;;;;5050880;28;20223;-77
2022/03/13 07:02:14;;;;;;;22.40;19.80;;;6.00;99.90;;;;;;5043761;28;20588;-77
2022/03/13 07:04:41;;;;;;;23.88;20.00;;;6.10;99.90;;;;;;5057047;28;20230;-76
2022/03/13 07:07:09;;;;;;;22.73;19.38;;;6.30;99.90;;;;;;5097891;22;20257;-69
2022/03/13 07:09:36;;;;;;;24.38;19.60;;;6.50;99.90;;;;;;5045429;28;20701;-69
2022/03/13 07:12:05;;;;;;;26.13;21.73;;;6.70;99.90;;;;;;5043243;28;20224;-70
2022/03/13 07:14:32;;;;;;;22.27;19.15;;;6.90;99.90;;;;;;5039205;28;20214;-69
2022/03/13 07:17:01;;;;;;;23.35;20.58;;;7.00;99.90;;;;;;5046817;28;20242;-69
2022/03/13 07:19:28;;;;;;;22.63;20.15;;;6.90;99.90;;;;;;5037958;28;20210;-70
2022/03/13 07:21:55;;;;;;;22.55;18.98;;;7.00;99.90;;;;;;5057199;28;20207;-69
2022/03/13 07:24:22;;;;;;;26.50;21.73;;;7.00;99.90;;;;;;5059724;28;20214;-69
2022/03/13 07:26:49;;;;;;;27.20;21.02;;;7.00;99.90;;;;;;5048543;28;20304;-69
2022/03/13 07:29:16;;;;;;;22.75;19.83;;;7.00;99.90;;;;;;5051133;28;20219;-69
2022/03/13 07:31:43;;;;;;;22.65;20.15;;;7.10;99.90;;;;;;5049970;28;20724;-70
2022/03/13 07:34:11;;;;;;;23.83;20.20;;;7.20;99.90;;;;;;5043807;28;20229;-69
2022/03/13 07:36:39;;;;;;;25.15;21.08;;;7.10;99.90;;;;;;5045367;28;20272;-69
2022/03/13 07:39:06;;;;;;;26.08;19.95;;;7.30;99.90;;;;;;5043020;28;20234;-70
2022/03/13 07:41:34;;;;;;;27.20;22.13;;;7.20;99.90;;;;;;5045295;28;20673;-70
2022/03/13 07:44:03;;;;;;;25.67;21.73;;;7.10;99.90;;;;;;5049171;28;20242;-69
2022/03/13 07:46:31;;;;;;;25.95;21.40;;;7.20;99.90;;;;;;5042374;28;20871;-69
2022/03/13 07:48:58;;;;;;;24.38;20.85;;;7.30;99.90;;;;;;5043938;28;20214;-70
2022/03/13 07:51:26;;;;;;;27.17;21.50;;;7.50;99.90;;;;;;5047762;28;20280;-70
2022/03/13 07:53:53;;;;;;;25.13;20.95;;;7.60;99.90;;;;;;5048305;28;20636;-70
2022/03/13 07:56:20;;;;;;;23.80;19.63;;;7.70;99.90;;;;;;5047580;28;20237;-70
2022/03/13 07:58:48;;;;;;;23.30;19.38;;;7.80;99.90;;;;;;5045053;28;20578;-69
2022/03/13 08:01:15;;;;;;;25.35;21.42;;;7.80;99.90;;;;;;5045121;28;20213;-70
2022/03/13 08:03:44;;;;;;;22.65;20.15;;;7.90;99.90;;;;;;5051559;28;20227;-70
2022/03/13 08:06:11;;;;;;;23.02;20.38;;;8.20;99.90;;;;;;5036193;28;20209;-70
2022/03/13 08:08:40;;;;;;;25.08;19.95;;;8.60;99.90;;;;;;5043017;28;20592;-70
2022/03/13 08:11:07;;;;;;;22.75;19.38;;;8.90;99.90;;;;;;5044949;28;20238;-70
2022/03/13 08:13:34;;;;;;;22.75;20.17;;;9.10;99.90;;;;;;5050605;28;20225;-70
2022/03/13 08:16:01;;;;;;;22.73;20.17;;;9.20;99.90;;;;;;5050615;28;20199;-70
2022/03/13 08:18:29;;;;;;;24.90;20.45;;;9.20;99.90;;;;;;5056746;28;20227;-70
2022/03/13 08:20:56;;;;;;;25.88;20.98;;;9.10;99.90;;;;;;5059047;28;20290;-69
2022/03/13 08:23:23;;;;;;;24.63;21.48;;;8.90;99.90;;;;;;5059207;28;20257;-70
2022/03/13 08:25:52;;;;;;;25.40;21.08;;;8.80;99.90;;;;;;5047731;28;20192;-71
2022/03/13 08:28:19;;;;;;;25.10;22.00;;;8.80;99.90;;;;;;5051520;28;20301;-69
2022/03/13 08:30:46;;;;;;;24.42;21.17;;;8.70;99.90;;;;;;5051707;28;20746;-70
2022/03/13 08:33:13;;;;;;;25.98;22.90;;;8.80;99.90;;;;;;5053137;28;20229;-71
2022/03/13 08:35:40;;;;;;;25.00;21.52;;;9.00;99.90;;;;;;5047877;28;20192;-71
2022/03/13 08:38:07;;;;;;;25.58;21.30;;;9.20;99.90;;;;;;5052124;28;20234;-70
2022/03/13 08:40:34;;;;;;;25.15;21.40;;;9.20;99.90;;;;;;5050016;28;20233;-70
2022/03/13 08:43:02;;;;;;;24.25;21.55;;;9.10;99.90;;;;;;5045016;28;20210;-71
2022/03/13 08:45:29;;;;;;;27.15;22.95;;;9.40;99.90;;;;;;5047799;28;20561;-70
2022/03/13 08:47:56;;;;;;;25.35;21.08;;;9.80;99.90;;;;;;5050252;28;20219;-71
2022/03/13 08:50:24;;;;;;;23.73;21.20;;;10.00;99.90;;;;;;5062328;28;20218;-72
2022/03/13 08:52:51;;;;;;;27.60;22.10;;;9.90;99.90;;;;;;5054640;28;20195;-71
2022/03/13 08:55:18;;;;;;;25.17;22.02;;;9.80;99.90;;;;;;5045622;28;20229;-71
2022/03/13 08:57:47;;;;;;;25.42;22.40;;;9.90;99.90;;;;;;5052389;28;20222;-69
2022/03/13 09:00:18;;;;;;;25.50;22.15;;;10.20;99.90;;;;;;5057146;28;20222;-70
2022/03/13 09:02:45;;;;;;;26.77;23.00;;;10.20;99.90;;;;;;5052820;28;20266;-71
2022/03/13 09:05:13;;;;;;;27.73;22.35;;;10.10;99.90;;;;;;5053792;28;20230;-70
2022/03/13 09:07:40;;;;;;;25.95;19.45;;;10.00;99.90;;;;;;5058412;28;20317;-70
2022/03/13 09:10:08;;;;;;;24.98;21.33;;;9.80;99.90;;;;;;5038524;28;20801;-68
2022/03/13 09:12:35;;;;;;;24.73;20.63;;;9.90;99.90;;;;;;5033548;28;20226;-70
2022/03/13 09:15:04;;;;;;;23.52;20.63;;;10.20;99.90;;;;;;5035884;28;20218;-73
2022/03/13 09:17:32;;;;;;;23.33;20.83;;;10.30;99.90;;;;;;5049834;28;20214;-72
2022/03/13 09:19:59;;;;;;;24.42;21.40;;;10.50;99.90;;;;;;5050868;28;20218;-72
2022/03/13 09:22:30;;;;;;;24.27;20.02;;;10.80;99.70;;;;;;5058517;28;20713;-71
2022/03/13 09:24:58;;;;;;;24.35;21.58;;;11.00;99.60;;;;;;5056189;28;20221;-72
2022/03/13 09:27:25;;;;;;;24.40;21.70;;;11.20;98.80;;;;;;5049155;28;20311;-72
2022/03/13 09:29:52;;;;;;;23.77;20.90;;;11.50;98.40;;;;;;5048487;28;20856;-75
2022/03/13 09:32:19;;;;;;;26.55;23.20;;;11.70;97.80;;;;;;5048382;28;20215;-71
2022/03/13 09:34:47;;;;;;;23.25;19.35;;;11.60;97.50;;;;;;5047351;28;20226;-75
2022/03/13 09:37:16;;;;;;;24.42;20.45;;;11.50;97.20;;;;;;5056785;28;20225;-70
2022/03/13 09:39:43;;;;;;;26.15;21.08;;;11.80;97.40;;;;;;5051936;28;20664;-70
2022/03/13 09:42:10;;;;;;;23.95;20.27;;;12.00;96.20;;;;;;5060028;28;20203;-72
2022/03/13 09:44:37;;;;;;;23.45;20.58;;;12.10;96.30;;;;;;5058766;28;20226;-71
2022/03/13 09:47:05;;;;;;;23.27;19.83;;;12.20;96.10;;;;;;5051205;28;20625;-70
2022/03/13 09:49:34;;;;;;;27.90;22.25;;;12.20;95.80;;;;;;5051815;28;20410;-71
2022/03/13 09:52:03;;;;;;;24.80;20.27;;;12.10;95.30;;;;;;5051334;28;20221;-75
2022/03/13 09:54:30;;;;;;;23.83;20.60;;;12.20;95.30;;;;;;5042848;28;20233;-71
2022/03/13 09:56:57;;;;;;;22.35;19.90;;;12.30;94.90;;;;;;5047578;28;20219;-72
2022/03/13 09:59:24;;;;;;;25.80;21.33;;;12.10;94.80;;;;;;5058327;28;20218;-71
2022/03/13 10:01:51;;;;;;;24.95;21.33;;;12.20;95.30;;;;;;5041291;28;21161;-70
2022/03/13 10:04:18;;;;;;;23.08;20.10;;;12.20;94.70;;;;;;5049487;28;20226;-71
2022/03/13 10:07:02;;;;;;;24.38;20.65;;;12.20;94.80;;;;;;5053025;28;20237;-72
2022/03/13 10:09:29;;;;;;;24.10;20.05;;;12.70;94.70;;;;;;5048401;28;20310;-74
2022/03/13 10:12:08;;;;;;;22.60;20.10;;;12.90;94.00;;;;;;5055600;28;20301;-72
2022/03/13 10:14:38;;;;;;;22.25;19.58;;;12.90;93.60;;;;;;5044873;28;20230;-76
2022/03/13 10:17:06;;;;;;;24.08;20.55;;;12.80;93.50;;;;;;5041299;28;20218;-77
2022/03/13 10:19:33;;;;;;;21.45;19.15;;;13.10;93.20;;;;;;5045317;28;20222;-73
2022/03/13 10:22:07;;;;;;;22.58;20.10;;;12.90;93.00;;;;;;5043864;28;20606;-71
2022/03/13 10:24:43;;;;;;;22.67;20.27;;;13.00;93.10;;;;;;5051104;28;20302;-71
2022/03/13 10:27:13;;;;;;;25.88;21.45;;;13.20;92.70;;;;;;5058840;28;20218;-71
2022/03/13 10:29:41;;;;;;;21.80;19.50;;;12.80;93.30;;;;;;5048038;28;20302;-71
2022/03/13 10:32:09;;;;;;;22.80;20.33;;;12.70;92.60;;;;;;5053488;28;20637;-71
2022/03/13 10:34:37;;;;;;;23.40;20.00;;;12.70;93.00;;;;;;5047209;28;20222;-73
2022/03/13 10:37:06;;;;;;;24.83;20.92;;;13.10;92.60;;;;;;5055564;28;20580;-76
2022/03/13 10:39:34;;;;;;;24.65;20.70;;;12.90;92.70;;;;;;5053887;28;20730;-72
2022/03/13 10:42:03;;;;;;;21.90;19.60;;;12.60;92.90;;;;;;5058246;28;20281;-72
2022/03/13 10:44:34;;;;;;;23.63;20.27;;;12.60;93.40;;;;;;5048625;28;20581;-71
2022/03/13 10:47:04;;;;;;;22.52;19.75;;;12.70;92.70;;;;;;5054280;28;20218;-77
2022/03/13 10:49:44;;;;;;;22.10;19.65;;;12.30;91.80;;;;;;5046317;28;20223;-71
2022/03/13 10:52:27;;;;;;;22.80;19.90;;;12.60;91.70;;;;;;5050600;28;20253;-74
2022/03/13 10:54:56;;;;;;;23.00;20.35;;;12.60;91.90;;;;;;5056331;28;20216;-73
2022/03/13 10:57:23;;;;;;;24.00;20.65;;;12.50;92.20;;;;;;5052794;28;20226;-73
2022/03/13 11:00:09;;;;;;;23.45;20.90;;;12.10;92.10;;;;;;5051611;28;20226;-75
2022/03/13 11:02:36;;;;;;;21.73;18.85;;;12.30;92.10;;;;;;5049965;28;20717;-72
2022/03/13 11:05:05;;;;;;;23.17;19.67;;;12.70;92.60;;;;;;5055445;28;20222;-72
2022/03/13 11:07:33;;;;;;;23.30;20.80;;;12.90;91.60;;;;;;5049353;28;20227;-73
2022/03/13 11:10:00;;;;;;;24.42;20.00;;;12.70;91.50;;;;;;5044588;28;20222;-73
2022/03/13 11:12:28;;;;;;;23.88;21.17;;;12.80;91.50;;;;;;5050031;28;20272;-74
2022/03/13 11:14:57;;;;;;;24.15;19.77;;;12.70;91.40;;;;;;5053842;28;20218;-72
2022/03/13 11:17:26;;;;;;;22.45;19.48;;;12.60;91.50;;;;;;5057311;28;20218;-74
2022/03/13 11:19:56;;;;;;;20.95;18.08;;;12.80;91.30;;;;;;5061918;28;20280;-73
2022/03/13 11:22:24;;;;;;;22.27;19.88;;;13.40;91.50;;;;;;5060923;28;20241;-72
2022/03/13 11:24:55;;;;;;;23.88;19.50;;;13.90;90.40;;;;;;5061897;28;20713;-72
2022/03/13 11:27:24;;;;;;;20.60;18.40;;;14.10;90.20;;;;;;5060232;28;20704;-71
2022/03/13 11:29:53;;;;;;;22.25;19.85;;;13.70;89.00;;;;;;5053511;28;20227;-71
2022/03/13 11:32:35;;;;;;;22.63;20.23;;;13.70;90.00;;;;;;5054340;28;20226;-72
2022/03/13 11:35:27;;;;;;;23.88;19.95;;;13.70;90.20;;;;;;5049147;28;20230;-72
2022/03/13 11:37:56;;;;;;;22.88;19.85;;;14.00;88.80;;;;;;5056066;28;20218;-71
2022/03/13 11:40:36;;;;;;;25.27;21.08;;;13.60;88.10;;;;;;5052312;28;20232;-71
2022/03/13 11:43:08;;;;;;;23.15;19.60;;;13.40;88.50;;;;;;5054049;28;20204;-72
2022/03/13 11:45:39;;;;;;;20.63;18.40;;;13.30;88.30;;;;;;5051802;28;20228;-71
2022/03/13 11:48:45;;;;;;;23.50;19.88;;;13.30;88.40;;;;;;5053045;28;20234;-72
2022/03/13 11:51:29;;;;;;;21.63;18.35;;;13.20;86.70;;;;;;5050655;28;20245;-72
2022/03/13 11:53:58;;;;;;;20.80;18.48;;;13.30;86.10;;;;;;5053947;28;20191;-71
2022/03/13 11:56:29;;;;;;;21.70;17.50;;;13.30;86.70;;;;;;5050334;28;20210;-75
2022/03/13 11:59:15;;;;;;;21.77;18.40;;;13.30;86.80;;;;;;5052129;28;20210;-73
2022/03/13 12:01:43;;;;;;;21.65;18.63;;;13.10;84.70;;;;;;5046259;28;20201;-72
2022/03/13 12:04:29;;;;;;;22.20;18.15;;;13.00;83.90;;;;;;5053372;28;20653;-72
2022/03/13 12:07:00;;;;;;;19.90;16.88;;;12.90;83.70;;;;;;5059148;28;20625;-73
2022/03/13 12:09:44;;;;;;;20.20;17.65;;;12.70;86.20;;;;;;5065248;28;20214;-73
2022/03/13 12:12:15;;;;;;;18.95;16.13;;;12.80;85.80;;;;;;5057723;28;20222;-75
2022/03/13 12:14:56;;;;;;;19.50;16.55;;;12.90;84.50;;;;;;5057057;28;20226;-73
2022/03/13 12:17:26;;;;;;;20.27;17.60;;;13.20;83.10;;;;;;5050669;28;20221;-72
2022/03/13 12:19:54;;;;;;;20.33;17.80;;;13.50;84.00;;;;;;5049512;28;20229;-72
2022/03/13 12:22:25;;;;;;;20.50;17.02;;;13.70;82.40;;;;;;5051076;28;20225;-71
2022/03/13 12:24:53;;;;;;;14.27;12.77;;;13.70;82.60;;;;;;5054647;28;20276;-70
2022/03/13 12:27:23;;;;;;;13.90;12.35;;;13.70;73.40;;;;;;5052680;28;20230;-70
2022/03/13 12:29:57;;;;;;;12.90;11.60;;;13.60;72.30;;;;;;5055458;28;20269;-71
2022/03/13 12:32:29;;;;;;;14.20;12.60;;;13.70;68.20;;;;;;5057414;28;20245;-70
2022/03/13 12:34:57;;;;;;;12.68;11.27;;;13.50;68.50;;;;;;5052152;28;20222;-70
2022/03/13 12:37:26;;;;;;;12.57;11.32;;;13.50;68.80;;;;;;5057627;28;20662;-71
2022/03/13 12:39:55;;;;;;;15.20;11.10;;;13.60;69.10;;;;;;5054982;28;20308;-70
2022/03/13 12:42:26;;;;;;;11.65;10.45;;;13.60;67.40;;;;;;5056915;28;20205;-71